TimeMDT,TemperatureF,Dew PointF,Humidity,Sea Level PressureIn,VisibilityMPH,Wind Direction,Wind SpeedMPH,Gust SpeedMPH,PrecipitationIn,Events,Conditions,WindDirDegrees,DateUTC
12:53 AM,70.0,64.9,84,29.99,10.0,ESE,13.8,-,N/A,,Overcast,120,2013-08-03 06:53:00
1:53 AM,70.0,66.0,87,30.00,10.0,ESE,5.8,-,N/A,,Overcast,110,2013-08-03 07:53:00
2:53 AM,69.1,64.9,87,29.99,10.0,ESE,8.1,-,N/A,,Mostly Cloudy,110,2013-08-03 08:53:00
3:21 AM,66.2,64.4,94,30.08,10.0,ESE,8.1,-,N/A,,Scattered Clouds,120,2013-08-03 09:21:00
3:42 AM,66.2,64.4,94,30.07,10.0,ESE,9.2,-,N/A,,Mostly Cloudy,110,2013-08-03 09:42:00
3:53 AM,68.0,64.9,90,29.96,10.0,East,9.2,-,N/A,,Overcast,100,2013-08-03 09:53:00
4:37 AM,66.2,64.4,94,30.07,10.0,ESE,10.4,-,N/A,,Scattered Clouds,120,2013-08-03 10:37:00
4:53 AM,66.9,64.0,90,29.97,10.0,ESE,9.2,-,N/A,,Clear,120,2013-08-03 10:53:00
5:05 AM,66.2,64.4,94,30.07,10.0,SE,12.7,-,N/A,,Partly Cloudy,130,2013-08-03 11:05:00
5:23 AM,66.2,64.4,94,30.07,10.0,ESE,13.8,-,N/A,,Mostly Cloudy,120,2013-08-03 11:23:00
5:40 AM,66.2,64.4,94,30.09,10.0,ESE,13.8,-,N/A,,Overcast,120,2013-08-03 11:40:00
5:53 AM,66.9,64.0,90,29.99,10.0,ESE,13.8,-,N/A,,Overcast,120,2013-08-03 11:53:00
6:53 AM,66.9,64.0,90,30.02,8.0,SE,15.0,-,N/A,,Overcast,130,2013-08-03 12:53:00
7:51 AM,66.2,64.4,94,30.12,3.0,SE,11.5,-,N/A,,Overcast,130,2013-08-03 13:51:00
7:53 AM,66.0,64.0,93,30.04,3.0,SE,11.5,-,N/A,,Overcast,130,2013-08-03 13:53:00
8:36 AM,66.2,64.4,94,30.13,4.0,ESE,10.4,-,N/A,,Overcast,110,2013-08-03 14:36:00
8:53 AM,68.0,64.0,87,30.06,7.0,ESE,9.2,-,N/A,,Overcast,120,2013-08-03 14:53:00
9:53 AM,69.1,64.0,84,30.07,9.0,ESE,11.5,-,N/A,,Overcast,110,2013-08-03 15:53:00
10:53 AM,69.1,64.0,84,30.11,9.0,East,11.5,-,N/A,,Overcast,100,2013-08-03 16:53:00
11:05 AM,69.8,64.4,83,30.18,10.0,East,16.1,19.6,N/A,,Overcast,100,2013-08-03 17:05:00
11:53 AM,68.0,64.0,87,30.14,5.0,East,16.1,21.9,N/A,,Overcast,80,2013-08-03 17:53:00
12:05 PM,66.2,64.4,94,30.20,2.0,East,16.1,-,0.00,Rain,Light Rain,90,2013-08-03 18:05:00
12:12 PM,66.2,64.4,94,30.21,1.8,East,18.4,-,0.00,Rain,Light Rain,80,2013-08-03 18:12:00
12:19 PM,66.2,64.4,94,30.21,2.0,East,16.1,-,0.00,,Overcast,80,2013-08-03 18:19:00
12:32 PM,66.2,64.4,94,30.21,4.0,East,19.6,25.3,0.00,,Overcast,80,2013-08-03 18:32:00
12:53 PM,66.9,63.0,87,30.14,7.0,East,17.3,25.3,0.00,,Overcast,80,2013-08-03 18:53:00
1:26 PM,68.0,62.6,83,30.21,9.0,East,19.6,25.3,N/A,,Overcast,90,2013-08-03 19:26:00
1:53 PM,71.1,63.0,75,30.12,10.0,East,13.8,27.6,N/A,,Overcast,100,2013-08-03 19:53:00
2:25 PM,73.4,62.6,69,30.18,10.0,ESE,18.4,25.3,N/A,,Overcast,110,2013-08-03 20:25:00
2:53 PM,72.0,62.1,71,30.09,10.0,ESE,17.3,26.5,N/A,,Overcast,120,2013-08-03 20:53:00
3:53 PM,70.0,61.0,73,30.10,10.0,ESE,15.0,25.3,N/A,,Overcast,120,2013-08-03 21:53:00
4:53 PM,70.0,61.0,73,30.12,10.0,SE,12.7,-,0.00,,Mostly Cloudy,130,2013-08-03 22:53:00
5:53 PM,72.0,61.0,68,30.10,10.0,SE,13.8,23.0,N/A,,Overcast,130,2013-08-03 23:53:00
6:53 PM,71.1,62.1,73,30.11,10.0,SE,11.5,-,N/A,,Overcast,140,2013-08-04 00:53:00
7:53 PM,70.0,61.0,73,30.14,10.0,South,5.8,-,N/A,,Mostly Cloudy,180,2013-08-04 01:53:00
8:03 PM,69.8,60.8,73,30.19,10.0,South,6.9,-,N/A,,Scattered Clouds,180,2013-08-04 02:03:00
8:53 PM,68.0,62.1,81,30.14,10.0,SSE,5.8,-,N/A,,Mostly Cloudy,150,2013-08-04 02:53:00
9:31 PM,68.0,62.6,83,30.21,10.0,SSE,5.8,-,N/A,,Mostly Cloudy,150,2013-08-04 03:31:00
9:53 PM,68.0,63.0,84,30.15,10.0,South,5.8,-,N/A,,Overcast,180,2013-08-04 03:53:00
10:26 PM,69.8,62.6,78,30.20,10.0,South,8.1,-,N/A,,Overcast,170,2013-08-04 04:26:00
10:53 PM,68.0,63.0,84,30.12,10.0,SE,5.8,-,N/A,,Overcast,140,2013-08-04 04:53:00
11:53 PM,68.0,63.0,84,30.12,10.0,ESE,3.5,-,N/A,,Overcast,110,2013-08-04 05:53:00